• Join FlightAware (Why Join?)
  • Login
  • US Flag 
06:14PM EST


 

Airport Tracker/Info


-or-


 

Live Flight TrackerFlight Track Log ✈ SWA2521 ✈ 23-Jan-2014 ✈ KLAS - KSJC

Flight Track Log - Related Links

Times and Time Zones

All times are in EST time to prevent confusion due to time zone crossing. See the SWA2521 flight status page for this flight to view local times or setup timezone preferences in your user account.

Time Position Orientation Groundspeed Altitude Reporting Facility
EST Latitude Longitude Course Direction KTS MPH feet Rate Location/Type
09:59PM 36.1178 -115.1517 265° West 172 198 3,800  Level Los Angeles Center
10:00PM 36.1103 -115.2661 265° West 264 304 7,200 2,313 Climbing Los Angeles Center
10:00PM 36.1086 -115.2739 255° West 261 300 7,500 2,877 Climbing Los Angeles Center
10:01PM 36.0783 -115.3753 250° West 294 338 10,700 2,000 Climbing Los Angeles Center
10:02PM 36.0719 -115.4667 265° West 343 395 11,600 2,341 Climbing Los Angeles Center
10:03PM 36.1103 -115.6131 288° West 364 419 15,500 2,878 Climbing Los Angeles Center
10:04PM 36.1331 -115.7025 288° West 358 412 17,500 2,177 Climbing Los Angeles Center
10:05PM 36.1561 -115.8556 281° West 370 426 20,000 2,226 Climbing Los Angeles Center
10:06PM 36.1728 -115.9903 279° West 370 426 22,100 1,610 Climbing Los Angeles Center
10:07PM 36.1964 -116.1214 283° West 392 451 23,300 2,371 Climbing Los Angeles Center
10:09PM 36.2303 -116.2442 289° West 390 449 27,000 2,390 Climbing Los Angeles Center
10:10PM 36.2586 -116.3572 287° West 352 405 28,200 927 Climbing Los Angeles Center
10:11PM 36.2911 -116.4811 288° West 376 433 28,900 1,258 Climbing Los Angeles Center
10:12PM 36.3231 -116.6064 288° West 383 441 30,800 1,500 Climbing Los Angeles Center
10:13PM 36.3606 -116.7517 288° West 372 428 32,000 585 Climbing Los Angeles Center
10:14PM 36.3911 -116.8719 288° West 369 425 32,000  Level Los Angeles Center
10:15PM 36.4222 -116.9939 288° West 370 426 32,000  Level Los Angeles Center
10:16PM 36.4511 -117.1136 287° West 366 421 32,000  Level Los Angeles Center
10:17PM 36.4819 -117.2353 288° West 369 425 32,000  Level Los Angeles Center
10:18PM 36.5114 -117.3553 287° West 368 423 32,000  Level Los Angeles Center
10:19PM 36.5408 -117.4722 287° West 364 419 32,000  Level Los Angeles Center
10:20PM 36.5764 -117.6133 287° West 360 414 32,000  Level Los Angeles Center
10:21PM 36.6050 -117.7325 287° West 360 414 32,000  Level Los Angeles Center
10:22PM 36.6344 -117.8506 287° West 360 414 32,000  Level Los Angeles Center
10:23PM 36.6644 -117.9744 287° West 364 419 32,000  Level Los Angeles Center
10:24PM 36.6936 -118.1022 286° West 374 430 32,000  Level Los Angeles Center
10:25PM 36.7244 -118.2278 287° West 379 436 32,000  Level Los Angeles Center
10:26PM 36.7606 -118.3808 286° West 383 441 32,000  Level Los Angeles Center
10:27PM 36.7800 -118.4653 286° West 385 443 32,000  Level Oakland Center
10:28PM 36.8094 -118.5956 286° West 380 437 32,000  Level Oakland Center
10:29PM 36.8411 -118.7244 287° West 388 447 32,000 -393 Level Oakland Center
10:30PM 36.8703 -118.8517 286° West 385 443 31,200 -885 Descending Oakland Center
10:31PM 36.8989 -118.9764 286° West 377 434 30,200 -984 Descending Oakland Center
10:32PM 36.9269 -119.1006 286° West 374 430 29,200 -984 Descending Oakland Center
10:33PM 36.9558 -119.2231 286° West 369 425 28,200 -927 Descending Oakland Center
10:34PM 36.9850 -119.3483 286° West 376 433 27,300 -927 Descending Oakland Center
10:35PM 37.0128 -119.4742 285° West 378 435 26,300 -984 Descending Oakland Center
10:36PM 37.0419 -119.6019 286° West 381 438 25,300 -1,131 Descending Oakland Center
10:37PM 37.0750 -119.7497 286° West 370 426 24,000 -1,082 Descending Oakland Center
10:38PM 37.0997 -119.8661 285° West 368 423 23,100 -885 Descending Oakland Center
10:39PM 37.1272 -119.9875 286° West 364 419 22,200 -927 Descending Oakland Center
10:40PM 37.1544 -120.1072 286° West 358 412 21,200 -976 Descending Oakland Center
10:41PM 37.1811 -120.2267 286° West 356 410 20,200 -984 Descending Oakland Center
10:42PM 37.2064 -120.3442 285° West 351 404 19,200 -1,328 Descending Oakland Center
10:43PM 37.2058 -120.4622 270° West 351 404 17,500 -1,854 Descending Oakland Center
10:44PM 37.1828 -120.5725 255° West 330 380 15,400 -2,195 Descending Oakland Center
10:45PM 37.1553 -120.7003 255° West 318 366 13,000 -1,623 Descending Oakland Center
10:46PM 37.1364 -120.8031 257° West 306 352 12,100 -916 Descending Oakland Center
10:47PM 37.1167 -120.9333 259° West 308 354 11,000 -934 Descending Northern Cal TRACON
10:48PM 37.1128 -121.0136 267° West 305 351 10,200 -531 Descending Oakland Center
10:49PM 37.0994 -121.1239 261° West 310 357 10,000 -98 Descending Oakland Center
10:50PM 37.0881 -121.2272 262° West 309 356 10,000  Level Oakland Center
10:51PM 37.0928 -121.3194 274° West 297 342 10,000 -885 Level Oakland Center
10:52PM 37.1114 -121.4156 284° West 289 333 8,200 -1,623 Descending Oakland Center
10:53PM 37.1286 -121.5153 282° West 292 336 6,700 -1,328 Descending Oakland Center
10:54PM 37.1453 -121.6125 282° West 290 334 5,500 -885 Descending Oakland Center
10:55PM 37.1619 -121.7092 282° West 288 331 4,900 -836 Descending Oakland Center
10:56PM 37.2233 -121.7792 318° Northwest 265 305 3,800 -1,024 Descending Oakland Center
10:57PM 37.2717 -121.8331 318° Northwest 246 283 2,800 -1,220 Descending Oakland Center
10:58PM 37.3108 -121.8764 319° Northwest 210 242 1,300 -1,180 Descending Oakland Center
10:59PM 37.3431 -121.9094 321° Northwest 171 197 400 -885 Descending Oakland Center
11:01PM 37.3500 -121.9167 North  Level FlightAware Approximate
11:08PM 37.3627 -121.9291 North  Level Estimated
11:09PM 37.3627 -121.9291 North  Level Estimated